sensor_id;sensor_type;location;lat;lon;timestamp;pressure;altitude;pressure_sealevel;temperature;humidity
21623;BME280;10973;46.706;12.340;2023-12-14T00:00:01;86040.13;;;4.23;64.15
21623;BME280;10973;46.706;12.340;2023-12-14T00:02:28;86042.38;;;4.28;64.38
21623;BME280;10973;46.706;12.340;2023-12-14T00:04:56;86042.00;;;4.29;64.39
21623;BME280;10973;46.706;12.340;2023-12-14T00:07:24;86046.09;;;4.23;64.43
21623;BME280;10973;46.706;12.340;2023-12-14T00:09:52;86037.47;;;4.12;64.64
21623;BME280;10973;46.706;12.340;2023-12-14T00:12:19;86045.66;;;4.14;65.03
21623;BME280;10973;46.706;12.340;2023-12-14T00:14:47;86046.75;;;4.06;65.10
21623;BME280;10973;46.706;12.340;2023-12-14T00:17:14;86054.25;;;4.18;65.01
21623;BME280;10973;46.706;12.340;2023-12-14T00:19:42;86043.44;;;4.16;64.52
21623;BME280;10973;46.706;12.340;2023-12-14T00:22:10;86051.28;;;4.20;64.55
21623;BME280;10973;46.706;12.340;2023-12-14T00:24:37;86056.50;;;4.20;64.14
21623;BME280;10973;46.706;12.340;2023-12-14T00:27:05;86057.97;;;4.21;64.26
21623;BME280;10973;46.706;12.340;2023-12-14T00:29:32;86067.31;;;4.22;64.21
21623;BME280;10973;46.706;12.340;2023-12-14T00:32:00;86068.06;;;4.22;64.24
21623;BME280;10973;46.706;12.340;2023-12-14T00:34:28;86061.34;;;4.18;63.91
21623;BME280;10973;46.706;12.340;2023-12-14T00:36:55;86060.59;;;4.17;63.96
21623;BME280;10973;46.706;12.340;2023-12-14T00:39:23;86064.31;;;4.20;63.93
21623;BME280;10973;46.706;12.340;2023-12-14T00:41:51;86068.03;;;4.19;63.79
21623;BME280;10973;46.706;12.340;2023-12-14T00:44:18;86063.19;;;4.17;63.88
21623;BME280;10973;46.706;12.340;2023-12-14T00:46:46;86064.69;;;4.18;63.81
21623;BME280;10973;46.706;12.340;2023-12-14T00:49:13;86071.75;;;4.18;63.60
21623;BME280;10973;46.706;12.340;2023-12-14T00:51:41;86078.84;;;4.21;63.78
21623;BME280;10973;46.706;12.340;2023-12-14T00:54:08;86073.97;;;4.16;63.74
21623;BME280;10973;46.706;12.340;2023-12-14T00:56:35;86081.06;;;4.15;63.69
21623;BME280;10973;46.706;12.340;2023-12-14T00:59:03;86091.88;;;4.21;63.70
21623;BME280;10973;46.706;12.340;2023-12-14T01:01:30;86091.13;;;4.20;64.06
21623;BME280;10973;46.706;12.340;2023-12-14T01:04:13;86097.84;;;4.18;64.42
21623;BME280;10973;46.706;12.340;2023-12-14T01:06:40;86106.03;;;4.20;64.13
21623;BME280;10973;46.706;12.340;2023-12-14T01:09:08;86106.31;;;4.08;64.71
21623;BME280;10973;46.706;12.340;2023-12-14T01:11:35;86110.41;;;4.05;64.67
21623;BME280;10973;46.706;12.340;2023-12-14T01:14:03;86120.81;;;4.02;64.61
21623;BME280;10973;46.706;12.340;2023-12-14T01:16:30;86124.16;;;4.02;65.26
21623;BME280;10973;46.706;12.340;2023-12-14T01:18:58;86124.19;;;4.06;65.27
21623;BME280;10973;46.706;12.340;2023-12-14T01:21:25;86129.00;;;4.04;65.21
21623;BME280;10973;46.706;12.340;2023-12-14T01:23:53;86129.06;;;4.11;64.95
21623;BME280;10973;46.706;12.340;2023-12-14T01:26:20;86127.94;;;4.12;64.67
21623;BME280;10973;46.706;12.340;2023-12-14T01:28:47;86130.50;;;4.05;64.48
21623;BME280;10973;46.706;12.340;2023-12-14T01:31:15;86139.44;;;4.07;64.75
21623;BME280;10973;46.706;12.340;2023-12-14T01:33:42;86135.41;;;4.13;64.31
21623;BME280;10973;46.706;12.340;2023-12-14T01:36:10;86142.88;;;4.18;64.40
21623;BME280;10973;46.706;12.340;2023-12-14T01:38:38;86145.09;;;4.16;64.12
21623;BME280;10973;46.706;12.340;2023-12-14T01:41:05;86141.00;;;4.15;64.11
21623;BME280;10973;46.706;12.340;2023-12-14T01:43:33;86152.53;;;4.14;63.56
21623;BME280;10973;46.706;12.340;2023-12-14T01:46:00;86152.16;;;4.12;63.25
21623;BME280;10973;46.706;12.340;2023-12-14T01:48:28;86159.97;;;4.12;62.94
21623;BME280;10973;46.706;12.340;2023-12-14T01:50:55;86156.94;;;4.07;63.14
21623;BME280;10973;46.706;12.340;2023-12-14T01:53:24;86158.41;;;4.04;62.50
21623;BME280;10973;46.706;12.340;2023-12-14T01:55:51;86159.88;;;3.98;62.77
21623;BME280;10973;46.706;12.340;2023-12-14T01:58:20;86163.19;;;3.95;63.00
21623;BME280;10973;46.706;12.340;2023-12-14T02:03:33;86170.22;;;3.88;62.69
21623;BME280;10973;46.706;12.340;2023-12-14T02:06:00;86169.47;;;3.87;62.65
21623;BME280;10973;46.706;12.340;2023-12-14T02:08:28;86170.91;;;3.85;62.62
21623;BME280;10973;46.706;12.340;2023-12-14T02:10:55;86178.38;;;3.86;62.64
21623;BME280;10973;46.706;12.340;2023-12-14T02:13:23;86186.19;;;3.86;62.79
21623;BME280;10973;46.706;12.340;2023-12-14T02:15:51;86180.25;;;3.86;62.91
21623;BME280;10973;46.706;12.340;2023-12-14T02:18:18;86189.91;;;3.85;62.58
21623;BME280;10973;46.706;12.340;2023-12-14T02:20:46;86183.19;;;3.84;62.69
21623;BME280;10973;46.706;12.340;2023-12-14T02:23:13;86187.31;;;3.85;62.94
21623;BME280;10973;46.706;12.340;2023-12-14T02:25:41;86185.06;;;3.84;62.84
21623;BME280;10973;46.706;12.340;2023-12-14T02:28:08;86186.16;;;3.79;63.05
21623;BME280;10973;46.706;12.340;2023-12-14T02:30:36;86186.50;;;3.78;62.75
21623;BME280;10973;46.706;12.340;2023-12-14T02:33:03;86185.34;;;3.75;62.45
21623;BME280;10973;46.706;12.340;2023-12-14T02:35:31;86194.59;;;3.69;62.15
21623;BME280;10973;46.706;12.340;2023-12-14T02:37:58;86199.38;;;3.63;62.16
21623;BME280;10973;46.706;12.340;2023-12-14T02:40:27;86201.59;;;3.61;62.28
21623;BME280;10973;46.706;12.340;2023-12-14T02:42:54;86200.88;;;3.61;62.29
21623;BME280;10973;46.706;12.340;2023-12-14T02:45:21;86204.19;;;3.58;62.16
21623;BME280;10973;46.706;12.340;2023-12-14T02:47:49;86203.78;;;3.56;62.08
21623;BME280;10973;46.706;12.340;2023-12-14T02:50:16;86209.78;;;3.60;62.40
21623;BME280;10973;46.706;12.340;2023-12-14T02:52:44;86217.94;;;3.58;62.05
21623;BME280;10973;46.706;12.340;2023-12-14T02:55:11;86219.03;;;3.57;62.55
21623;BME280;10973;46.706;12.340;2023-12-14T02:57:39;86226.47;;;3.55;62.38
21623;BME280;10973;46.706;12.340;2023-12-14T03:00:07;86228.31;;;3.55;62.32
21623;BME280;10973;46.706;12.340;2023-12-14T03:02:35;86220.09;;;3.49;62.66
21623;BME280;10973;46.706;12.340;2023-12-14T03:05:03;86233.50;;;3.51;62.47
21623;BME280;10973;46.706;12.340;2023-12-14T03:07:32;86232.34;;;3.49;62.26
21623;BME280;10973;46.706;12.340;2023-12-14T03:09:59;86233.13;;;3.49;62.21
21623;BME280;10973;46.706;12.340;2023-12-14T03:12:27;86244.50;;;3.38;62.52
21623;BME280;10973;46.706;12.340;2023-12-14T03:14:54;86243.75;;;3.37;62.48
21623;BME280;10973;46.706;12.340;2023-12-14T03:17:22;86244.13;;;3.36;62.33
21623;BME280;10973;46.706;12.340;2023-12-14T03:19:49;86252.56;;;3.26;62.36
21623;BME280;10973;46.706;12.340;2023-12-14T03:22:17;86251.84;;;3.29;62.50
21623;BME280;10973;46.706;12.340;2023-12-14T03:24:45;86253.34;;;3.30;62.08
21623;BME280;10973;46.706;12.340;2023-12-14T03:27:13;86264.13;;;3.28;62.05
21623;BME280;10973;46.706;12.340;2023-12-14T03:29:40;86261.91;;;3.30;62.38
21623;BME280;10973;46.706;12.340;2023-12-14T03:32:08;86262.66;;;3.31;62.21
21623;BME280;10973;46.706;12.340;2023-12-14T03:34:36;86268.25;;;3.33;62.40
21623;BME280;10973;46.706;12.340;2023-12-14T03:37:04;86273.06;;;3.31;62.42
21623;BME280;10973;46.706;12.340;2023-12-14T03:39:31;86273.47;;;3.33;62.36
21623;BME280;10973;46.706;12.340;2023-12-14T03:41:59;86276.47;;;3.35;62.38
21623;BME280;10973;46.706;12.340;2023-12-14T03:44:26;86273.84;;;3.35;62.92
21623;BME280;10973;46.706;12.340;2023-12-14T03:46:54;86279.44;;;3.33;62.65
21623;BME280;10973;46.706;12.340;2023-12-14T03:49:22;86271.66;;;3.37;62.68
21623;BME280;10973;46.706;12.340;2023-12-14T03:51:49;86276.50;;;3.38;62.86
21623;BME280;10973;46.706;12.340;2023-12-14T03:54:17;86282.13;;;3.40;63.15
21623;BME280;10973;46.706;12.340;2023-12-14T03:56:44;86284.25;;;3.31;63.84
21623;BME280;10973;46.706;12.340;2023-12-14T03:59:11;86286.13;;;3.34;63.67
21623;BME280;10973;46.706;12.340;2023-12-14T04:01:40;86289.16;;;3.40;63.74
21623;BME280;10973;46.706;12.340;2023-12-14T04:04:08;86293.69;;;3.43;63.64
21623;BME280;10973;46.706;12.340;2023-12-14T04:06:35;86294.81;;;3.45;63.27
21623;BME280;10973;46.706;12.340;2023-12-14T04:09:03;86303.34;;;3.42;63.49
21623;BME280;10973;46.706;12.340;2023-12-14T04:11:30;86307.78;;;3.42;63.39
21623;BME280;10973;46.706;12.340;2023-12-14T04:13:58;86312.91;;;3.35;63.41
21623;BME280;10973;46.706;12.340;2023-12-14T04:16:25;86315.91;;;3.37;63.49
21623;BME280;10973;46.706;12.340;2023-12-14T04:18:53;86318.19;;;3.42;63.10
21623;BME280;10973;46.706;12.340;2023-12-14T04:21:20;86323.03;;;3.43;63.27
21623;BME280;10973;46.706;12.340;2023-12-14T04:23:48;86325.25;;;3.41;63.57
21623;BME280;10973;46.706;12.340;2023-12-14T04:26:15;86342.25;;;3.32;63.90
21623;BME280;10973;46.706;12.340;2023-12-14T04:28:43;86340.44;;;3.36;63.77
21623;BME280;10973;46.706;12.340;2023-12-14T04:31:11;86337.50;;;3.37;63.99
21623;BME280;10973;46.706;12.340;2023-12-14T04:33:38;86350.97;;;3.43;63.84
21623;BME280;10973;46.706;12.340;2023-12-14T04:36:06;86351.69;;;3.43;63.86
21623;BME280;10973;46.706;12.340;2023-12-14T04:38:34;86362.50;;;3.45;63.84
21623;BME280;10973;46.706;12.340;2023-12-14T04:41:02;86363.56;;;3.41;64.33
21623;BME280;10973;46.706;12.340;2023-12-14T04:43:30;86359.78;;;3.35;64.27
21623;BME280;10973;46.706;12.340;2023-12-14T04:45:57;86365.66;;;3.32;64.54
21623;BME280;10973;46.706;12.340;2023-12-14T04:48:25;86365.72;;;3.35;64.80
21623;BME280;10973;46.706;12.340;2023-12-14T04:50:52;86373.53;;;3.35;64.54
21623;BME280;10973;46.706;12.340;2023-12-14T04:53:20;86372.84;;;3.38;64.73
21623;BME280;10973;46.706;12.340;2023-12-14T04:55:48;86374.81;;;3.48;64.26
21623;BME280;10973;46.706;12.340;2023-12-14T04:58:16;86375.97;;;3.51;64.17
21623;BME280;10973;46.706;12.340;2023-12-14T05:00:44;86377.78;;;3.47;64.42
21623;BME280;10973;46.706;12.340;2023-12-14T05:03:11;86377.13;;;3.53;64.19
21623;BME280;10973;46.706;12.340;2023-12-14T05:05:39;86386.88;;;3.60;64.05
21623;BME280;10973;46.706;12.340;2023-12-14T05:08:09;86388.78;;;3.63;63.97
21623;BME280;10973;46.706;12.340;2023-12-14T05:10:36;86387.72;;;3.68;63.76
21623;BME280;10973;46.706;12.340;2023-12-14T05:13:04;86394.41;;;3.65;63.98
21623;BME280;10973;46.706;12.340;2023-12-14T05:15:32;86391.81;;;3.69;64.25
21623;BME280;10973;46.706;12.340;2023-12-14T05:18:00;86398.53;;;3.70;64.07
21623;BME280;10973;46.706;12.340;2023-12-14T05:20:27;86394.47;;;3.72;64.35
21623;BME280;10973;46.706;12.340;2023-12-14T05:22:55;86396.72;;;3.74;64.12
21623;BME280;10973;46.706;12.340;2023-12-14T05:25:23;86394.50;;;3.76;64.10
21623;BME280;10973;46.706;12.340;2023-12-14T05:27:50;86404.19;;;3.75;63.88
21623;BME280;10973;46.706;12.340;2023-12-14T05:30:17;86401.84;;;3.67;64.45
21623;BME280;10973;46.706;12.340;2023-12-14T05:32:45;86414.44;;;3.61;64.16
21623;BME280;10973;46.706;12.340;2023-12-14T05:35:13;86409.31;;;3.68;64.22
21623;BME280;10973;46.706;12.340;2023-12-14T05:37:40;86409.31;;;3.68;63.80
21623;BME280;10973;46.706;12.340;2023-12-14T05:40:10;86413.41;;;3.69;63.47
21623;BME280;10973;46.706;12.340;2023-12-14T05:42:37;86416.78;;;3.70;63.50
21623;BME280;10973;46.706;12.340;2023-12-14T05:45:06;86410.41;;;3.67;63.02
21623;BME280;10973;46.706;12.340;2023-12-14T05:47:38;86418.22;;;3.67;62.84
21623;BME280;10973;46.706;12.340;2023-12-14T05:50:06;86420.84;;;3.67;62.95
21623;BME280;10973;46.706;12.340;2023-12-14T05:52:34;86422.66;;;3.63;62.95
21623;BME280;10973;46.706;12.340;2023-12-14T05:55:03;86428.56;;;3.60;63.08
21623;BME280;10973;46.706;12.340;2023-12-14T05:57:31;86428.91;;;3.58;62.52
21623;BME280;10973;46.706;12.340;2023-12-14T05:59:58;86431.84;;;3.57;62.38
21623;BME280;10973;46.706;12.340;2023-12-14T06:02:26;86440.00;;;3.52;62.22
21623;BME280;10973;46.706;12.340;2023-12-14T06:04:54;86445.13;;;3.48;62.15
21623;BME280;10973;46.706;12.340;2023-12-14T06:07:22;86455.41;;;3.38;63.02
21623;BME280;10973;46.706;12.340;2023-12-14T06:09:49;86453.56;;;3.38;62.78
21623;BME280;10973;46.706;12.340;2023-12-14T06:12:17;86454.34;;;3.42;62.78
21623;BME280;10973;46.706;12.340;2023-12-14T06:14:44;86455.13;;;3.43;63.17
21623;BME280;10973;46.706;12.340;2023-12-14T06:17:12;86458.84;;;3.45;62.74
21623;BME280;10973;46.706;12.340;2023-12-14T06:19:39;86458.84;;;3.45;62.58
21623;BME280;10973;46.706;12.340;2023-12-14T06:22:07;86457.00;;;3.46;62.69
21623;BME280;10973;46.706;12.340;2023-12-14T06:24:34;86459.22;;;3.44;62.65
21623;BME280;10973;46.706;12.340;2023-12-14T06:27:02;86466.31;;;3.47;62.75
21623;BME280;10973;46.706;12.340;2023-12-14T06:29:29;86471.06;;;3.41;62.98
21623;BME280;10973;46.706;12.340;2023-12-14T06:31:57;86477.69;;;3.35;62.99
21623;BME280;10973;46.706;12.340;2023-12-14T06:34:24;86480.81;;;3.22;63.00
21623;BME280;10973;46.706;12.340;2023-12-14T06:36:52;86481.22;;;3.24;63.39
21623;BME280;10973;46.706;12.340;2023-12-14T06:39:19;86481.34;;;3.31;63.22
21623;BME280;10973;46.706;12.340;2023-12-14T06:41:47;86489.53;;;3.33;62.48
21623;BME280;10973;46.706;12.340;2023-12-14T06:44:15;86489.53;;;3.33;62.78
21623;BME280;10973;46.706;12.340;2023-12-14T06:46:42;86490.31;;;3.33;62.32
21623;BME280;10973;46.706;12.340;2023-12-14T06:49:10;86495.81;;;3.28;62.43
21623;BME280;10973;46.706;12.340;2023-12-14T06:51:38;86500.31;;;3.31;61.73
21623;BME280;10973;46.706;12.340;2023-12-14T06:54:05;86506.84;;;3.22;61.87
21623;BME280;10973;46.706;12.340;2023-12-14T06:56:33;86506.06;;;3.18;61.60
21623;BME280;10973;46.706;12.340;2023-12-14T06:59:03;86511.59;;;3.16;61.90
21623;BME280;10973;46.706;12.340;2023-12-14T07:01:30;86514.94;;;3.17;62.00
21623;BME280;10973;46.706;12.340;2023-12-14T07:03:58;86518.66;;;3.16;61.89
21623;BME280;10973;46.706;12.340;2023-12-14T07:06:26;86525.34;;;3.17;61.81
21623;BME280;10973;46.706;12.340;2023-12-14T07:08:53;86524.56;;;3.13;62.21
21623;BME280;10973;46.706;12.340;2023-12-14T07:11:21;86534.97;;;3.13;62.04
21623;BME280;10973;46.706;12.340;2023-12-14T07:13:49;86531.22;;;3.10;61.99
21623;BME280;10973;46.706;12.340;2023-12-14T07:16:16;86541.97;;;3.09;61.58
21623;BME280;10973;46.706;12.340;2023-12-14T07:18:44;86544.97;;;3.11;61.75
21623;BME280;10973;46.706;12.340;2023-12-14T07:21:12;86554.97;;;3.09;61.64
21623;BME280;10973;46.706;12.340;2023-12-14T07:23:39;86554.84;;;3.02;61.31
21623;BME280;10973;46.706;12.340;2023-12-14T07:26:07;86558.53;;;3.01;61.36
21623;BME280;10973;46.706;12.340;2023-12-14T07:28:35;86563.63;;;2.94;60.79
21623;BME280;10973;46.706;12.340;2023-12-14T07:31:03;86569.31;;;2.99;60.76
21623;BME280;10973;46.706;12.340;2023-12-14T07:33:30;86575.59;;;2.98;60.87
21623;BME280;10973;46.706;12.340;2023-12-14T07:35:58;86574.84;;;2.98;61.17
21623;BME280;10973;46.706;12.340;2023-12-14T07:38:26;86577.13;;;2.99;60.75
21623;BME280;10973;46.706;12.340;2023-12-14T07:40:54;86579.81;;;2.83;60.82
21623;BME280;10973;46.706;12.340;2023-12-14T07:43:21;86583.22;;;2.87;60.45
21623;BME280;10973;46.706;12.340;2023-12-14T07:45:49;86585.69;;;2.80;60.36
21623;BME280;10973;46.706;12.340;2023-12-14T07:48:28;86593.22;;;2.85;60.66
21623;BME280;10973;46.706;12.340;2023-12-14T07:51:05;86598.03;;;2.83;60.22
21623;BME280;10973;46.706;12.340;2023-12-14T07:53:33;86598.22;;;2.75;60.69
21623;BME280;10973;46.706;12.340;2023-12-14T07:56:00;86608.03;;;2.81;60.62
21623;BME280;10973;46.706;12.340;2023-12-14T07:58:28;86605.28;;;2.74;60.63
21623;BME280;10973;46.706;12.340;2023-12-14T08:00:56;86612.25;;;2.70;60.85
21623;BME280;10973;46.706;12.340;2023-12-14T08:03:24;86618.28;;;2.74;60.95
21623;BME280;10973;46.706;12.340;2023-12-14T08:05:51;86613.09;;;2.74;61.24
21623;BME280;10973;46.706;12.340;2023-12-14T08:08:19;86618.75;;;2.80;61.40
21623;BME280;10973;46.706;12.340;2023-12-14T08:10:46;86624.66;;;2.77;61.06
21623;BME280;10973;46.706;12.340;2023-12-14T08:13:14;86615.47;;;2.83;61.21
21623;BME280;10973;46.706;12.340;2023-12-14T08:15:42;86621.44;;;2.83;61.05
21623;BME280;10973;46.706;12.340;2023-12-14T08:18:11;86622.25;;;2.87;60.99
21623;BME280;10973;46.706;12.340;2023-12-14T08:20:39;86627.09;;;2.89;60.68
21623;BME280;10973;46.706;12.340;2023-12-14T08:23:06;86628.13;;;2.84;60.82
21623;BME280;10973;46.706;12.340;2023-12-14T08:25:33;86633.06;;;2.89;60.75
21623;BME280;10973;46.706;12.340;2023-12-14T08:28:01;86638.53;;;2.84;60.89
21623;BME280;10973;46.706;12.340;2023-12-14T08:30:31;86638.31;;;2.93;60.39
21623;BME280;10973;46.706;12.340;2023-12-14T08:32:59;86634.84;;;2.85;60.51
21623;BME280;10973;46.706;12.340;2023-12-14T08:35:27;86641.75;;;2.97;60.52
21623;BME280;10973;46.706;12.340;2023-12-14T08:37:54;86650.03;;;3.03;60.70
21623;BME280;10973;46.706;12.340;2023-12-14T08:40:22;86650.28;;;2.98;60.64
21623;BME280;10973;46.706;12.340;2023-12-14T08:42:49;86656.75;;;2.84;60.07
21623;BME280;10973;46.706;12.340;2023-12-14T08:45:17;86647.84;;;2.85;60.08
21623;BME280;10973;46.706;12.340;2023-12-14T08:47:44;86648.25;;;2.87;60.23
21623;BME280;10973;46.706;12.340;2023-12-14T08:50:12;86654.38;;;2.95;60.20
21623;BME280;10973;46.706;12.340;2023-12-14T08:52:39;86658.19;;;3.01;59.74
21623;BME280;10973;46.706;12.340;2023-12-14T08:55:08;86656.00;;;3.03;60.23
21623;BME280;10973;46.706;12.340;2023-12-14T08:57:36;86662.50;;;3.13;60.20
21623;BME280;10973;46.706;12.340;2023-12-14T09:00:04;86678.25;;;3.20;60.23
21623;BME280;10973;46.706;12.340;2023-12-14T09:02:31;86675.69;;;3.23;60.75
21623;BME280;10973;46.706;12.340;2023-12-14T09:04:59;86677.28;;;3.28;60.49
21623;BME280;10973;46.706;12.340;2023-12-14T09:07:27;86681.00;;;3.27;61.01
21623;BME280;10973;46.706;12.340;2023-12-14T09:09:56;86692.63;;;3.33;60.59
21623;BME280;10973;46.706;12.340;2023-12-14T09:12:23;86700.03;;;3.31;60.45
21623;BME280;10973;46.706;12.340;2023-12-14T09:14:51;86701.94;;;3.15;60.39
21623;BME280;10973;46.706;12.340;2023-12-14T09:17:18;86701.59;;;3.16;60.81
21623;BME280;10973;46.706;12.340;2023-12-14T09:19:46;86710.78;;;3.29;60.69
21623;BME280;10973;46.706;12.340;2023-12-14T09:22:14;86712.78;;;3.36;60.37
21623;BME280;10973;46.706;12.340;2023-12-14T09:24:41;86708.84;;;3.45;60.67
21623;BME280;10973;46.706;12.340;2023-12-14T09:27:09;86717.53;;;3.53;60.85
21623;BME280;10973;46.706;12.340;2023-12-14T09:29:36;86710.66;;;3.64;60.63
21623;BME280;10973;46.706;12.340;2023-12-14T09:32:04;86723.78;;;3.68;60.50
21623;BME280;10973;46.706;12.340;2023-12-14T09:34:32;86717.84;;;3.71;60.28
21623;BME280;10973;46.706;12.340;2023-12-14T09:37:00;86723.16;;;3.74;60.58
21623;BME280;10973;46.706;12.340;2023-12-14T09:39:27;86720.66;;;3.81;60.39
21623;BME280;10973;46.706;12.340;2023-12-14T09:42:06;86725.16;;;3.84;60.29
21623;BME280;10973;46.706;12.340;2023-12-14T09:44:37;86731.22;;;3.88;60.18
21623;BME280;10973;46.706;12.340;2023-12-14T09:47:05;86730.50;;;3.91;60.23
21623;BME280;10973;46.706;12.340;2023-12-14T09:49:34;86736.59;;;3.99;60.44
21623;BME280;10973;46.706;12.340;2023-12-14T09:52:03;86735.84;;;3.98;60.76
21623;BME280;10973;46.706;12.340;2023-12-14T09:54:30;86735.16;;;4.01;60.60
21623;BME280;10973;46.706;12.340;2023-12-14T09:56:58;86734.88;;;4.06;60.74
21623;BME280;10973;46.706;12.340;2023-12-14T09:59:25;86739.09;;;4.14;60.63
21623;BME280;10973;46.706;12.340;2023-12-14T10:02:13;86746.63;;;4.19;60.33
21623;BME280;10973;46.706;12.340;2023-12-14T10:04:43;86747.41;;;4.20;60.29
21623;BME280;10973;46.706;12.340;2023-12-14T10:07:11;86744.44;;;4.21;60.35
21623;BME280;10973;46.706;12.340;2023-12-14T10:09:42;86744.44;;;4.21;60.10
21623;BME280;10973;46.706;12.340;2023-12-14T10:12:11;86748.66;;;4.29;60.05
21623;BME280;10973;46.706;12.340;2023-12-14T10:14:40;86759.50;;;4.31;59.51
21623;BME280;10973;46.706;12.340;2023-12-14T10:17:29;86753.47;;;4.27;59.81
21623;BME280;10973;46.706;12.340;2023-12-14T10:19:58;86759.03;;;4.26;60.08
21623;BME280;10973;46.706;12.340;2023-12-14T10:22:29;86765.81;;;4.30;59.91
21623;BME280;10973;46.706;12.340;2023-12-14T10:24:56;86757.69;;;4.36;59.61
21623;BME280;10973;46.706;12.340;2023-12-14T10:27:24;86764.47;;;4.40;59.95
21623;BME280;10973;46.706;12.340;2023-12-14T10:29:56;86761.91;;;4.44;60.00
21623;BME280;10973;46.706;12.340;2023-12-14T10:32:24;86764.47;;;4.40;59.87
21623;BME280;10973;46.706;12.340;2023-12-14T10:34:52;86766.28;;;4.36;59.52
21623;BME280;10973;46.706;12.340;2023-12-14T10:37:22;86772.13;;;4.29;59.52
21623;BME280;10973;46.706;12.340;2023-12-14T10:39:51;86765.25;;;4.18;59.81
21623;BME280;10973;46.706;12.340;2023-12-14T10:42:25;86769.09;;;4.27;59.91
21623;BME280;10973;46.706;12.340;2023-12-14T10:44:56;86770.56;;;4.25;59.89
21623;BME280;10973;46.706;12.340;2023-12-14T10:47:45;86766.44;;;4.24;59.90
21623;BME280;10973;46.706;12.340;2023-12-14T10:50:15;86779.50;;;4.24;60.11
21623;BME280;10973;46.706;12.340;2023-12-14T10:52:44;86772.19;;;4.33;60.42
21623;BME280;10973;46.706;12.340;2023-12-14T10:55:48;86768.91;;;4.36;60.63
21623;BME280;10973;46.706;12.340;2023-12-14T10:58:15;86776.66;;;4.32;60.17
21623;BME280;10973;46.706;12.340;2023-12-14T11:00:42;86785.69;;;4.39;60.41
21623;BME280;10973;46.706;12.340;2023-12-14T11:03:13;86783.44;;;4.37;60.17
21623;BME280;10973;46.706;12.340;2023-12-14T11:05:41;86783.78;;;4.36;60.34
21623;BME280;10973;46.706;12.340;2023-12-14T11:08:08;86788.59;;;4.33;60.42
21623;BME280;10973;46.706;12.340;2023-12-14T11:10:40;86784.13;;;4.34;60.50
21623;BME280;10973;46.706;12.340;2023-12-14T11:13:11;86783.03;;;4.35;60.29
21623;BME280;10973;46.706;12.340;2023-12-14T11:15:49;86784.59;;;4.40;60.35
21623;BME280;10973;46.706;12.340;2023-12-14T11:23:18;86790.03;;;5.02;59.73
21623;BME280;10973;46.706;12.340;2023-12-14T11:26:00;86790.16;;;5.39;58.28
21623;BME280;10973;46.706;12.340;2023-12-14T11:28:33;86789.09;;;5.73;56.95
21623;BME280;10973;46.706;12.340;2023-12-14T11:31:02;86793.22;;;6.04;55.97
21623;BME280;10973;46.706;12.340;2023-12-14T11:33:33;86797.22;;;6.28;54.77
21623;BME280;10973;46.706;12.340;2023-12-14T11:36:03;86794.34;;;6.40;54.01
21623;BME280;10973;46.706;12.340;2023-12-14T11:38:32;86801.19;;;6.52;53.50
21623;BME280;10973;46.706;12.340;2023-12-14T11:40:59;86795.00;;;6.70;54.17
21623;BME280;10973;46.706;12.340;2023-12-14T11:43:27;86794.34;;;6.80;52.92
21623;BME280;10973;46.706;12.340;2023-12-14T11:45:55;86786.41;;;6.73;52.42
21623;BME280;10973;46.706;12.340;2023-12-14T11:48:22;86796.06;;;6.66;52.49
21623;BME280;10973;46.706;12.340;2023-12-14T11:50:51;86808.84;;;6.34;51.86
21623;BME280;10973;46.706;12.340;2023-12-14T11:53:18;86809.28;;;6.03;52.42
21623;BME280;10973;46.706;12.340;2023-12-14T11:55:46;86814.50;;;5.73;53.17
21623;BME280;10973;46.706;12.340;2023-12-14T11:58:15;86810.41;;;5.46;53.86
21623;BME280;10973;46.706;12.340;2023-12-14T12:00:43;86816.84;;;5.26;54.82
21623;BME280;10973;46.706;12.340;2023-12-14T12:03:19;86812.06;;;5.05;55.16
21623;BME280;10973;46.706;12.340;2023-12-14T12:05:50;86803.47;;;4.78;55.57
21623;BME280;10973;46.706;12.340;2023-12-14T12:08:20;86805.63;;;4.73;55.20
21623;BME280;10973;46.706;12.340;2023-12-14T12:10:49;86811.69;;;4.54;55.81
21623;BME280;10973;46.706;12.340;2023-12-14T12:13:20;86807.72;;;4.41;55.95
21623;BME280;10973;46.706;12.340;2023-12-14T12:15:48;86812.19;;;4.18;56.63
21623;BME280;10973;46.706;12.340;2023-12-14T12:18:17;86820.00;;;4.18;56.84
21623;BME280;10973;46.706;12.340;2023-12-14T12:20:45;86816.38;;;4.03;57.64
21623;BME280;10973;46.706;12.340;2023-12-14T12:23:13;86827.47;;;4.00;57.23
21623;BME280;10973;46.706;12.340;2023-12-14T12:25:40;86824.59;;;3.86;57.40
21623;BME280;10973;46.706;12.340;2023-12-14T12:28:08;86827.41;;;3.78;58.05
21623;BME280;10973;46.706;12.340;2023-12-14T12:30:36;86826.00;;;3.61;58.45
21623;BME280;10973;46.706;12.340;2023-12-14T12:33:07;86835.56;;;3.57;58.58
21623;BME280;10973;46.706;12.340;2023-12-14T12:35:35;86833.25;;;3.52;58.81
21623;BME280;10973;46.706;12.340;2023-12-14T12:38:02;86830.34;;;3.57;58.62
21623;BME280;10973;46.706;12.340;2023-12-14T12:40:30;86834.75;;;3.53;58.73
21623;BME280;10973;46.706;12.340;2023-12-14T12:42:59;86833.16;;;3.48;58.50
21623;BME280;10973;46.706;12.340;2023-12-14T12:45:27;86837.56;;;3.44;58.48
21623;BME280;10973;46.706;12.340;2023-12-14T12:47:54;86837.63;;;3.48;58.62
21623;BME280;10973;46.706;12.340;2023-12-14T12:50:22;86844.19;;;3.42;58.80
21623;BME280;10973;46.706;12.340;2023-12-14T12:52:50;86841.53;;;3.38;59.19
21623;BME280;10973;46.706;12.340;2023-12-14T12:55:18;86836.38;;;3.42;58.88
21623;BME280;10973;46.706;12.340;2023-12-14T12:57:47;86840.94;;;3.45;58.83
21623;BME280;10973;46.706;12.340;2023-12-14T13:00:16;86837.81;;;3.39;58.47
21623;BME280;10973;46.706;12.340;2023-12-14T13:02:45;86830.22;;;3.31;58.24
21623;BME280;10973;46.706;12.340;2023-12-14T13:05:13;86837.03;;;3.20;58.62
21623;BME280;10973;46.706;12.340;2023-12-14T13:07:45;86842.47;;;3.30;58.42
21623;BME280;10973;46.706;12.340;2023-12-14T13:10:13;86855.28;;;3.20;58.59
21623;BME280;10973;46.706;12.340;2023-12-14T13:12:57;86854.91;;;3.21;58.52